createdAt,value
2022-12-08T00:00:59.365Z,16.6
2022-12-08T00:03:02.518Z,17.8
2022-12-08T00:07:11.531Z,13.4
2022-12-08T00:09:14.491Z,24.5
2022-12-08T00:11:17.481Z,11.3
2022-12-08T00:13:20.477Z,12.6
2022-12-08T00:15:23.492Z,13.1
2022-12-08T00:17:26.500Z,24.3
2022-12-08T00:19:29.481Z,29.1
2022-12-08T00:21:35.691Z,21.5
2022-12-08T00:23:38.696Z,12.4
2022-12-08T00:25:41.694Z,10.6
2022-12-08T00:27:44.668Z,14.1
2022-12-08T00:29:47.666Z,19.9
2022-12-08T00:31:50.749Z,20
2022-12-08T00:33:53.685Z,17.6
2022-12-08T00:35:59.874Z,15.1
2022-12-08T00:38:02.891Z,20
2022-12-08T00:40:06.295Z,16.1
2022-12-08T00:44:33.289Z,18.5
2022-12-08T00:46:36.280Z,16.4
2022-12-08T00:48:42.499Z,14.2
2022-12-08T00:50:45.556Z,25.8
2022-12-08T00:52:48.530Z,16.5
2022-12-08T00:54:51.520Z,23.6
2022-12-08T00:56:54.544Z,20.8
2022-12-08T00:58:57.563Z,16.7
2022-12-08T01:01:00.622Z,27.7
2022-12-08T01:03:06.804Z,16.2
2022-12-08T01:05:09.778Z,30.6
2022-12-08T01:07:12.784Z,19.6
2022-12-08T01:09:15.808Z,14.1
2022-12-08T01:11:18.816Z,29.5
2022-12-08T01:13:21.813Z,17.3
2022-12-08T01:15:24.783Z,28.9
2022-12-08T01:17:31.011Z,36.3
2022-12-08T01:19:34.028Z,17.3
2022-12-08T01:21:37.049Z,29.3
2022-12-08T01:23:40.015Z,31.4
2022-12-08T01:25:43.009Z,14.6
2022-12-08T01:27:46.027Z,19.6
2022-12-08T01:29:49.025Z,29.2
2022-12-08T01:31:55.269Z,30.8
2022-12-08T01:33:58.255Z,18.4
2022-12-08T01:36:01.273Z,25.5
2022-12-08T01:39:07.405Z,29.5
2022-12-08T01:41:10.402Z,23.2
2022-12-08T01:43:13.410Z,31.9
2022-12-08T01:45:19.630Z,21.1
2022-12-08T01:47:22.643Z,26.2
2022-12-08T01:51:28.678Z,28.2
2022-12-08T01:53:31.667Z,43.4
2022-12-08T01:55:34.705Z,18.8
2022-12-08T01:57:37.699Z,24
2022-12-08T02:03:49.969Z,18.2
2022-12-08T02:05:52.978Z,21.1
2022-12-08T02:09:59.022Z,19.3
2022-12-08T02:14:08.240Z,21.6
2022-12-08T02:16:11.366Z,21.5
2022-12-08T02:18:14.288Z,19.6
2022-12-08T02:20:17.289Z,23.2
2022-12-08T02:22:20.318Z,14.9
2022-12-08T02:24:23.317Z,25.5
2022-12-08T02:26:26.370Z,27.3
2022-12-08T02:28:32.606Z,28.2
2022-12-08T02:30:35.737Z,20.4
2022-12-08T02:32:38.647Z,17.9
2022-12-08T02:33:43.325Z,21.4
2022-12-08T02:37:49.384Z,28.4
2022-12-08T02:39:52.381Z,23.7
2022-12-08T02:41:58.592Z,22.1
2022-12-08T02:44:01.619Z,15.9
2022-12-08T02:46:04.728Z,15.1
2022-12-08T02:48:07.685Z,13.2
2022-12-08T02:50:10.683Z,24.7
2022-12-08T02:52:13.702Z,15.7
2022-12-08T02:54:16.735Z,13.1
2022-12-08T02:56:22.988Z,10.7
2022-12-08T02:58:26.023Z,20.8
2022-12-08T03:12:50.377Z,17.2
2022-12-08T03:14:53.377Z,11.5
2022-12-08T03:18:59.410Z,13.4
2022-12-08T03:21:02.427Z,19.5
2022-12-08T03:23:05.461Z,10.6
2022-12-08T03:25:11.700Z,13.3
2022-12-08T03:27:14.705Z,12.8
2022-12-08T03:29:17.713Z,12.5
2022-12-08T03:30:20.845Z,13.6
2022-12-08T03:32:23.888Z,14.5
2022-12-08T03:34:26.900Z,13.8
2022-12-08T03:36:29.923Z,13.4
2022-12-08T03:38:36.138Z,17.5
2022-12-08T03:40:39.170Z,11.6
2022-12-08T03:42:42.195Z,14.7
2022-12-08T03:44:45.207Z,14.9
2022-12-08T03:46:48.224Z,14.1
2022-12-08T03:48:51.258Z,14
2022-12-08T03:50:54.269Z,16.8
2022-12-08T03:53:00.518Z,17.8
2022-12-08T03:55:03.546Z,23.6
2022-12-08T03:57:06.565Z,21.7
2022-12-08T03:59:09.563Z,17.6
2022-12-08T04:01:12.580Z,13.9
2022-12-08T04:03:15.651Z,19
2022-12-08T04:05:18.629Z,21.7
2022-12-08T04:07:24.862Z,15.7
2022-12-08T04:09:27.877Z,25.4
2022-12-08T04:11:30.881Z,20.5
2022-12-08T04:13:33.910Z,19.5
2022-12-08T04:15:36.967Z,22.8
2022-12-08T04:17:39.949Z,18.2
2022-12-08T04:19:42.968Z,15
2022-12-08T04:23:57.565Z,16.1
2022-12-08T04:28:23.076Z,15.3
2022-12-08T04:30:26.124Z,17.8
2022-12-08T04:32:29.141Z,19
2022-12-08T04:34:35.389Z,15.4
2022-12-08T04:36:38.404Z,17.8
2022-12-08T04:38:41.404Z,15.7
2022-12-08T04:40:44.523Z,11.6
2022-12-08T04:42:47.474Z,14.3
2022-12-08T04:44:50.486Z,18.8
2022-12-08T04:46:53.586Z,19.4
2022-12-08T04:48:59.745Z,18.4
2022-12-08T04:51:02.795Z,15.7
2022-12-08T04:53:05.819Z,9.7
2022-12-08T04:55:08.812Z,10.4
2022-12-08T04:59:14.856Z,11.4
2022-12-08T05:01:17.970Z,11.8
2022-12-08T05:03:28.259Z,10.7
2022-12-08T05:05:27.136Z,18.5
2022-12-08T05:09:33.183Z,18
2022-12-08T05:11:36.191Z,11.2
2022-12-08T05:15:42.232Z,15.4
2022-12-08T05:21:54.525Z,8.8
2022-12-08T05:27:03.660Z,7.1
2022-12-08T05:29:06.685Z,16.5
2022-12-08T05:33:15.977Z,6.8
2022-12-08T05:37:21.988Z,7.4
2022-12-08T05:47:40.280Z,4.5
2022-12-08T05:49:43.310Z,8.8
2022-12-08T05:51:46.338Z,9.3
2022-12-08T05:53:49.342Z,16.4
2022-12-08T05:55:52.346Z,13.5
2022-12-08T05:57:55.374Z,3.7
2022-12-08T06:00:01.874Z,4.4
2022-12-08T06:02:04.764Z,5.2
2022-12-08T06:04:07.609Z,5.3
2022-12-08T06:06:10.637Z,2.8
2022-12-08T06:08:13.757Z,4.6
2022-12-08T06:10:16.677Z,10.5
2022-12-08T06:12:19.676Z,4.9
2022-12-08T06:14:25.898Z,4.8
2022-12-08T06:16:28.997Z,5.6
2022-12-08T06:18:32.951Z,2.5
2022-12-08T06:19:35.069Z,6.4
2022-12-08T06:21:38.062Z,4.4
2022-12-08T06:25:44.087Z,7.3
2022-12-08T06:27:50.333Z,2.6
2022-12-08T06:29:53.336Z,7
2022-12-08T06:31:56.493Z,5.4
2022-12-08T06:33:59.341Z,3.8
2022-12-08T06:36:02.377Z,1.6
2022-12-08T06:38:05.391Z,3.6
2022-12-08T06:40:08.387Z,4.7
2022-12-08T06:42:14.616Z,6.7
2022-12-08T06:44:17.626Z,5.5
2022-12-08T06:46:20.690Z,4.6
2022-12-08T06:48:23.813Z,10
2022-12-08T06:50:26.632Z,7.1
2022-12-08T06:52:29.638Z,1.8
2022-12-08T06:54:32.622Z,3.5
2022-12-08T06:56:38.872Z,7.6
2022-12-08T06:58:41.882Z,10.5
2022-12-08T07:00:44.972Z,4.2
2022-12-08T07:02:47.946Z,3.9
2022-12-08T07:04:50.897Z,8.5
2022-12-08T07:06:53.876Z,6.8
2022-12-08T07:08:57.084Z,4.5
2022-12-08T07:11:03.105Z,5.9
2022-12-08T07:13:06.102Z,5.8
2022-12-08T07:15:09.113Z,6
2022-12-08T07:16:12.206Z,5.7
2022-12-08T07:18:15.242Z,10
2022-12-08T07:20:18.245Z,17.2
2022-12-08T07:22:21.235Z,10.1
2022-12-08T07:24:27.445Z,7.7
2022-12-08T07:26:30.445Z,6.2
2022-12-08T07:28:33.451Z,17
2022-12-08T07:30:36.506Z,8.3
2022-12-08T07:32:39.458Z,7.2
2022-12-08T07:34:42.469Z,12.7
2022-12-08T07:36:45.451Z,8.4
2022-12-08T07:40:54.708Z,10.9
2022-12-08T07:42:57.676Z,11.4
2022-12-08T07:47:03.682Z,7.8
2022-12-08T07:49:06.677Z,10.4
2022-12-08T07:57:21.891Z,10.1
2022-12-08T08:05:33.892Z,10.1
2022-12-08T08:09:43.126Z,11.5
2022-12-08T08:12:01.104Z,8.3
2022-12-08T08:14:04.159Z,13.2
2022-12-08T08:18:10.217Z,13.4
2022-12-08T08:20:16.435Z,7
2022-12-08T08:22:19.406Z,8.6
2022-12-08T08:24:22.396Z,12.6
2022-12-08T08:26:25.431Z,5.2
2022-12-08T08:28:30.021Z,8
2022-12-08T08:30:32.980Z,3.9
2022-12-08T08:32:35.955Z,7.7
2022-12-08T08:34:42.172Z,17.5
2022-12-08T08:36:45.270Z,11.3
2022-12-08T08:38:48.223Z,12
2022-12-08T08:40:51.191Z,9.9
2022-12-08T08:42:54.180Z,5.5
2022-12-08T08:44:57.189Z,4.1
2022-12-08T08:47:00.200Z,6.5
2022-12-08T08:53:12.431Z,6.4
2022-12-08T08:55:15.433Z,6
2022-12-08T08:57:23.621Z,6
2022-12-08T09:01:24.484Z,4.3
2022-12-08T09:05:33.656Z,5.3
2022-12-08T09:07:36.708Z,8.3
2022-12-08T09:08:39.769Z,17.2
2022-12-08T09:10:42.766Z,5.7
2022-12-08T09:12:45.775Z,9.9
2022-12-08T09:14:48.793Z,11.2
2022-12-08T09:16:55.015Z,5.7
2022-12-08T09:18:58.009Z,53.2
2022-12-08T09:21:01.037Z,9.2
2022-12-08T09:23:04.032Z,6.4
2022-12-08T09:25:07.057Z,12.4
2022-12-08T09:27:10.073Z,5.8
2022-12-08T09:29:13.050Z,11.2
2022-12-08T09:31:19.292Z,7.9
2022-12-08T09:33:22.276Z,6.7
2022-12-08T09:35:25.321Z,11.1
2022-12-08T09:37:28.527Z,8.5
2022-12-08T09:39:31.300Z,12.5
2022-12-08T09:41:40.336Z,9.3
2022-12-08T09:43:37.341Z,6.7
2022-12-08T09:45:43.545Z,5.6
2022-12-08T09:51:52.621Z,5.2
2022-12-08T09:53:55.628Z,11.4
2022-12-08T10:00:08.153Z,6.3
2022-12-08T10:04:13.878Z,12.8
2022-12-08T10:09:23.178Z,8
2022-12-08T10:11:26.044Z,6
2022-12-08T10:13:32.296Z,3.2
2022-12-08T10:15:35.287Z,3.8
2022-12-08T10:17:38.323Z,9.6
2022-12-08T10:21:44.353Z,7.8
2022-12-08T10:32:02.763Z,4.1
2022-12-08T10:40:14.702Z,3.4
2022-12-08T10:44:23.950Z,2.8
2022-12-08T10:46:27.014Z,6.8
2022-12-08T10:50:33.019Z,6.4
2022-12-08T10:52:36.045Z,3.3
2022-12-08T10:54:39.055Z,2.2
2022-12-08T10:56:45.292Z,4.6
2022-12-08T10:58:48.302Z,4
2022-12-08T11:01:54.621Z,2.3
2022-12-08T11:03:57.493Z,6.6
2022-12-08T11:06:05.405Z,10.3
2022-12-08T11:08:03.625Z,1.1
2022-12-08T11:10:09.764Z,9.3
2022-12-08T11:12:12.787Z,5.8
2022-12-08T11:14:15.825Z,4
2022-12-08T11:16:18.907Z,1.3
2022-12-08T11:18:21.860Z,1
2022-12-08T11:20:24.914Z,0.9
2022-12-08T11:22:27.926Z,1.8
2022-12-08T11:24:37.486Z,3
2022-12-08T11:26:37.212Z,5.4
2022-12-08T11:28:40.220Z,1.6
2022-12-08T11:30:43.271Z,1.1
2022-12-08T11:32:46.311Z,2.7
2022-12-08T11:34:49.300Z,1.1
2022-12-08T11:36:52.338Z,12.9
2022-12-08T11:38:58.627Z,5.1
2022-12-08T11:41:01.664Z,6.5
2022-12-08T11:43:04.676Z,5.8
2022-12-08T11:45:07.919Z,1.2
2022-12-08T11:47:10.705Z,10.4
2022-12-08T11:49:13.749Z,2.2
2022-12-08T11:51:16.785Z,1.8
2022-12-08T11:53:23.033Z,1.7
2022-12-08T11:55:26.058Z,1.7
2022-12-08T11:57:29.098Z,2.2
2022-12-08T11:59:59.044Z,1.6
2022-12-08T12:02:02.123Z,4
2022-12-08T12:06:37.592Z,1.2
2022-12-08T12:10:17.403Z,3.4
2022-12-08T12:16:26.576Z,1.7
2022-12-08T12:22:38.861Z,1.2
2022-12-08T12:28:47.984Z,6.5
2022-12-08T12:30:51.116Z,11.2
2022-12-08T12:32:54.036Z,11
2022-12-08T12:37:03.333Z,1.7
2022-12-08T12:39:06.413Z,7.1
2022-12-08T12:41:09.408Z,2
2022-12-08T12:43:12.443Z,2.2
2022-12-08T12:45:15.479Z,2.3
2022-12-08T12:47:18.560Z,2
2022-12-08T12:49:24.773Z,1.8
2022-12-08T12:51:27.822Z,1.6
2022-12-08T12:53:30.846Z,0.9
2022-12-08T12:54:33.927Z,4.2
2022-12-08T12:56:37.005Z,2.9
2022-12-08T12:58:40.015Z,6.1
2022-12-08T13:00:43.049Z,1.5
2022-12-08T13:02:49.464Z,2.6
2022-12-08T13:04:52.362Z,32.9
2022-12-08T13:06:55.380Z,8.5
2022-12-08T13:08:58.418Z,0.9
2022-12-08T13:11:01.457Z,5.8
2022-12-08T13:13:04.476Z,0.4
2022-12-08T13:15:07.488Z,3.2
2022-12-08T13:17:13.877Z,0.2
2022-12-08T13:19:16.794Z,1.9
2022-12-08T13:21:19.808Z,1
2022-12-08T13:23:22.831Z,3.9
2022-12-08T13:25:25.877Z,0.4
2022-12-08T13:27:28.935Z,0.5
2022-12-08T13:29:31.934Z,0.6
2022-12-08T13:31:38.167Z,7.5
2022-12-08T13:33:41.214Z,2.4
2022-12-08T13:35:44.220Z,0.7
2022-12-08T13:39:50.270Z,4.6
2022-12-08T13:41:53.291Z,2.1
2022-12-08T13:44:50.242Z,4.1
2022-12-08T13:48:23.840Z,9.5
2022-12-08T13:56:37.262Z,1.4
2022-12-08T14:03:33.001Z,2.2
2022-12-08T14:06:10.366Z,1.8
2022-12-08T14:09:42.037Z,1.3
2022-12-08T14:11:45.029Z,7.8
2022-12-08T14:13:51.256Z,4.1
2022-12-08T14:15:54.275Z,4.3
2022-12-08T14:17:57.271Z,2.4
2022-12-08T14:20:00.323Z,2.6
2022-12-08T14:22:03.274Z,4.8
2022-12-08T14:24:07.859Z,10.9
2022-12-08T14:26:10.840Z,1.9
2022-12-08T14:28:17.077Z,2.2
2022-12-08T14:30:20.047Z,6.2
2022-12-08T14:32:23.032Z,1.5
2022-12-08T14:34:26.035Z,1.6
2022-12-08T14:36:29.042Z,4.1
2022-12-08T14:38:32.079Z,3.7
2022-12-08T14:40:35.038Z,7.4
2022-12-08T14:42:41.235Z,21.3
2022-12-08T14:44:44.235Z,6.8
2022-12-08T14:46:47.344Z,1.2
2022-12-08T14:58:11.668Z,5.1
2022-12-08T15:00:11.554Z,3
2022-12-08T15:04:17.547Z,4
2022-12-08T15:06:20.507Z,6.5
2022-12-08T15:08:23.621Z,5.9
2022-12-08T15:10:29.733Z,6.6
2022-12-08T15:12:32.731Z,6.5
2022-12-08T15:14:35.717Z,8.5
2022-12-08T15:16:38.795Z,9.3
2022-12-08T15:18:41.703Z,3.7
2022-12-08T15:20:44.694Z,21.9
2022-12-08T15:22:47.692Z,5.4
2022-12-08T15:24:53.889Z,3.1
2022-12-08T15:26:56.881Z,4.5
2022-12-08T15:28:59.868Z,3.5
2022-12-08T15:31:02.883Z,3.6
2022-12-08T15:43:24.010Z,3.9
2022-12-08T15:45:59.404Z,3.5
2022-12-08T15:47:56.913Z,5.6
2022-12-08T15:49:59.898Z,4.9
2022-12-08T15:52:11.649Z,12.3
2022-12-08T15:54:09.100Z,8.4
2022-12-08T15:56:27.299Z,20.8
2022-12-08T16:00:49.975Z,12.3
2022-12-08T16:05:17.874Z,9.6
2022-12-08T16:07:20.381Z,12.8
2022-12-08T16:08:49.486Z,11.1
2022-12-08T16:11:10.791Z,9.6
2022-12-08T16:21:16.982Z,18.5
2022-12-08T16:33:12.527Z,17.2
2022-12-08T16:35:18.734Z,15.1
2022-12-08T16:37:21.718Z,27
2022-12-08T16:39:24.764Z,19.4
2022-12-08T16:40:27.831Z,25
2022-12-08T16:42:30.844Z,15.6
2022-12-08T16:44:33.850Z,20.7
2022-12-08T16:46:36.848Z,20.9
2022-12-08T16:48:43.060Z,22.1
2022-12-08T16:50:46.059Z,17.7
2022-12-08T16:54:52.067Z,15
2022-12-08T16:56:55.069Z,29.4
2022-12-08T17:01:01.118Z,21.8
2022-12-08T17:03:07.301Z,21.8
2022-12-08T17:07:13.284Z,27.3
2022-12-08T17:09:16.384Z,24.9
2022-12-08T17:11:19.287Z,24.5
2022-12-08T17:13:22.284Z,29
2022-12-08T17:15:25.273Z,29.6
2022-12-08T17:17:31.515Z,33.7
2022-12-08T17:19:34.519Z,28.2
2022-12-08T17:21:37.499Z,26.6
2022-12-08T17:23:40.531Z,25.8
2022-12-08T17:25:43.516Z,26.6
2022-12-08T17:27:46.505Z,33.5
2022-12-08T17:29:49.499Z,24.6
2022-12-08T17:31:55.800Z,26.5
2022-12-08T17:33:58.714Z,21.4
2022-12-08T17:36:01.710Z,34.9
2022-12-08T17:37:04.828Z,36
2022-12-08T17:39:08.647Z,25.6
2022-12-08T17:41:10.842Z,37.4
2022-12-08T17:43:13.814Z,31.9
2022-12-08T17:45:20.055Z,34.3
2022-12-08T17:49:26.033Z,42.4
2022-12-08T17:51:29.043Z,45.3
2022-12-08T17:53:37.189Z,35
2022-12-08T17:55:35.021Z,29.4
2022-12-08T17:57:37.995Z,33.5
2022-12-08T17:59:44.194Z,30
2022-12-08T18:05:53.194Z,30.1
2022-12-08T18:12:02.198Z,36.1
2022-12-08T18:14:08.385Z,35.5
2022-12-08T18:16:11.373Z,24
2022-12-08T18:18:14.417Z,44.1
2022-12-08T18:20:17.416Z,26.8
2022-12-08T18:24:23.415Z,29
2022-12-08T18:26:26.423Z,32.1
2022-12-08T18:28:32.638Z,31.1
2022-12-08T18:30:35.740Z,34.3
2022-12-08T18:32:38.642Z,39.9
2022-12-08T18:33:41.756Z,35.7
2022-12-08T18:35:44.753Z,31.9
2022-12-08T18:41:56.985Z,34
2022-12-08T18:46:03.048Z,27.9
2022-12-08T18:48:06.030Z,32.5
2022-12-08T18:52:12.031Z,36.1
2022-12-08T18:56:21.298Z,42.8
2022-12-08T18:58:24.282Z,35
2022-12-08T19:00:27.314Z,32.1
2022-12-08T19:02:30.344Z,44.6
2022-12-08T19:04:38.518Z,36.2
2022-12-08T19:06:36.340Z,37.3
2022-12-08T19:10:45.568Z,37.8
2022-12-08T19:12:48.605Z,28.7
2022-12-08T19:14:51.590Z,41.2
2022-12-08T19:16:54.582Z,52.3
2022-12-08T19:18:57.599Z,41.8
2022-12-08T19:21:00.609Z,34.4
2022-12-08T19:23:03.658Z,35.7
2022-12-08T19:25:09.846Z,24.4
2022-12-08T19:27:12.848Z,27.1
2022-12-08T19:29:15.863Z,25.3
2022-12-08T19:31:33.887Z,31.1
2022-12-08T19:33:36.821Z,30.4
2022-12-08T19:41:52.080Z,37.8
2022-12-08T19:43:55.107Z,32.8
2022-12-08T19:45:58.246Z,23
2022-12-08T19:48:01.103Z,27.2
2022-12-08T19:50:04.688Z,35.9
2022-12-08T19:52:10.370Z,31.9
2022-12-08T19:54:13.380Z,29.2
2022-12-08T19:56:16.378Z,29.1
2022-12-08T19:58:19.386Z,24.4
2022-12-08T20:00:22.385Z,39.2
2022-12-08T20:02:25.530Z,40.5
2022-12-08T20:04:28.447Z,21.3
2022-12-08T20:06:34.647Z,33.1
2022-12-08T20:08:37.741Z,35.4
2022-12-08T20:10:40.698Z,27.2
2022-12-08T20:12:43.712Z,23.1
2022-12-08T20:14:46.708Z,31.5
2022-12-08T20:16:49.860Z,32.4
2022-12-08T20:18:54.330Z,26.7
2022-12-08T20:21:00.521Z,37.4
2022-12-08T20:23:03.537Z,25.3
2022-12-08T20:25:06.597Z,25.2
2022-12-08T20:28:12.707Z,21.4
2022-12-08T20:30:17.453Z,29.7
2022-12-08T20:34:24.942Z,26.4
2022-12-08T20:36:27.927Z,29.5
2022-12-08T20:38:31.036Z,35.6
2022-12-08T20:40:34.047Z,41.3
2022-12-08T20:42:37.045Z,28.1
2022-12-08T20:44:40.038Z,37.8
2022-12-08T20:46:47.771Z,31
2022-12-08T20:48:49.437Z,30.4
2022-12-08T20:50:52.345Z,45.3
2022-12-08T20:52:55.661Z,57
2022-12-08T20:54:58.385Z,31.3
2022-12-08T20:57:01.349Z,36.2
2022-12-08T20:59:04.364Z,36.8
2022-12-08T21:01:07.480Z,30.8
2022-12-08T21:03:13.937Z,33.7
2022-12-08T21:05:16.774Z,32.3
2022-12-08T21:09:22.894Z,35.4
2022-12-08T21:11:25.670Z,32.9
2022-12-08T21:13:28.850Z,34.6
2022-12-08T21:15:31.695Z,36.9
2022-12-08T21:17:38.137Z,44.3
2022-12-08T21:19:40.937Z,46.5
2022-12-08T21:21:43.950Z,46.9
2022-12-08T21:22:47.077Z,47.2
2022-12-08T21:26:53.333Z,46.6
2022-12-08T21:28:56.252Z,36.1
2022-12-08T21:37:11.433Z,38.8
2022-12-08T21:39:14.405Z,40
2022-12-08T21:41:17.452Z,44
2022-12-08T21:43:20.458Z,40
2022-12-08T21:45:26.792Z,41.7
2022-12-08T21:47:29.833Z,45.5
2022-12-08T21:49:32.715Z,38.6
2022-12-08T21:51:35.722Z,42.6
2022-12-08T21:53:38.723Z,45.5
2022-12-08T21:55:41.819Z,56.3
2022-12-08T21:57:44.809Z,49.1
2022-12-08T21:59:51.201Z,60.3
2022-12-08T22:01:54.294Z,52.9
2022-12-08T22:03:57.163Z,56.7
2022-12-08T22:06:00.201Z,62
2022-12-08T22:08:03.150Z,57
2022-12-08T22:10:06.681Z,53.6
2022-12-08T22:12:09.045Z,49.6
2022-12-08T22:14:15.516Z,55
2022-12-08T22:16:18.383Z,67.4
2022-12-08T22:18:21.587Z,70.2
2022-12-08T22:19:24.430Z,60.2
2022-12-08T22:21:27.504Z,51.4
2022-12-08T22:23:30.444Z,52.7
2022-12-08T22:25:33.469Z,61.3
2022-12-08T22:27:39.698Z,63
2022-12-08T22:29:42.951Z,53.9
2022-12-08T22:31:45.798Z,55.6
2022-12-08T22:33:48.906Z,69.8
2022-12-08T22:35:51.776Z,62.4
2022-12-08T22:37:54.810Z,58.6
2022-12-08T22:39:57.792Z,64.1
2022-12-08T22:42:04.048Z,58.5
2022-12-08T22:44:07.132Z,69.1
2022-12-08T22:46:12.137Z,58.7
2022-12-08T22:48:13.116Z,64
2022-12-08T22:50:16.127Z,68.1
2022-12-08T22:52:19.305Z,62.8
2022-12-08T22:54:22.164Z,54.5
2022-12-08T22:56:28.508Z,54.8
2022-12-08T22:58:31.566Z,59.6
2022-12-08T23:00:34.378Z,71.7
2022-12-08T23:04:40.614Z,63.2
2022-12-08T23:06:43.495Z,69.5
2022-12-08T23:08:46.601Z,58.2
2022-12-08T23:10:52.817Z,56.8
2022-12-08T23:12:58.037Z,61
2022-12-08T23:14:58.883Z,54.9
2022-12-08T23:17:28.887Z,61.6
2022-12-08T23:19:31.932Z,58.4
2022-12-08T23:21:34.703Z,56.1
2022-12-08T23:23:41.079Z,56.5
2022-12-08T23:25:43.956Z,60.5
2022-12-08T23:27:47.134Z,66.8
2022-12-08T23:29:49.953Z,56.8
2022-12-08T23:31:53.136Z,57.9
2022-12-08T23:33:56.083Z,60.8
2022-12-08T23:35:59.229Z,60.4
2022-12-08T23:38:05.515Z,62.7
2022-12-08T23:40:08.770Z,68.6
2022-12-08T23:42:11.284Z,65
2022-12-08T23:44:14.421Z,69.5
2022-12-08T23:46:17.512Z,58.4
2022-12-08T23:48:20.465Z,61.1
2022-12-08T23:50:23.539Z,68.9
2022-12-08T23:52:29.575Z,66.9
2022-12-08T23:54:32.646Z,61.9
2022-12-08T23:56:35.606Z,65.8
2022-12-08T23:58:38.617Z,61.1
